Time;durP1;ratioP1;P1;durP2;ratioP2;P2;SDS_P1;SDS_P2;PMS_P1;PMS_P2;Temp;Humidity;BMP_temperature;BMP_pressure;BME280_temperature;BME280_humidity;BME280_pressure;Samples;Min_cycle;Max_cycle;Signal;HPM_P1;HPM_P2
2021/10/21 00:01:59;;;;;;;61.50;49.58;;;12.30;99.40;;;;;;5034283;28;20036;-55
2021/10/21 00:04:28;;;;;;;58.90;46.47;;;12.30;99.50;;;;;;5034771;28;20052;-56
2021/10/21 00:06:55;;;;;;;61.72;48.92;;;12.20;99.50;;;;;;5034390;28;20061;-55
2021/10/21 00:09:21;;;;;;;66.93;49.78;;;12.20;99.50;;;;;;5034248;28;20044;-54
2021/10/21 00:11:47;;;;;;;58.97;47.78;;;12.20;99.50;;;;;;5034087;28;20053;-56
2021/10/21 00:14:14;;;;;;;55.80;45.40;;;12.20;99.50;;;;;;5034200;28;20025;-54
2021/10/21 00:16:40;;;;;;;58.03;46.53;;;12.20;99.50;;;;;;5034211;28;20034;-55
2021/10/21 00:19:07;;;;;;;66.03;49.92;;;12.10;99.50;;;;;;5034036;28;20048;-56
2021/10/21 00:21:33;;;;;;;60.85;47.10;;;12.10;99.50;;;;;;5034191;28;20501;-55
2021/10/21 00:24:00;;;;;;;55.67;45.65;;;12.10;99.70;;;;;;5032951;28;20034;-56
2021/10/21 00:26:27;;;;;;;59.83;47.88;;;12.10;99.70;;;;;;5034144;28;20033;-56
2021/10/21 00:28:53;;;;;;;63.20;48.10;;;12.00;99.70;;;;;;5033893;28;20060;-51
2021/10/21 00:31:19;;;;;;;63.30;49.65;;;12.00;99.80;;;;;;5032782;28;20037;-55
2021/10/21 00:33:46;;;;;;;64.72;50.53;;;12.00;99.90;;;;;;5033973;28;20033;-57
2021/10/21 00:36:13;;;;;;;60.88;47.35;;;12.00;99.60;;;;;;5033895;28;20041;-55
2021/10/21 00:38:40;;;;;;;62.05;50.65;;;12.00;99.40;;;;;;5033645;28;20037;-56
2021/10/21 00:41:07;;;;;;;63.42;50.03;;;12.00;99.50;;;;;;5033575;28;20036;-57
2021/10/21 00:43:39;;;;;;;67.13;52.85;;;11.90;99.80;;;;;;5033592;28;20032;-55
2021/10/21 00:46:07;;;;;;;66.88;55.13;;;11.90;99.90;;;;;;5033799;28;20029;-57
2021/10/21 00:48:35;;;;;;;68.57;54.60;;;11.90;99.90;;;;;;5033918;28;20041;-57
2021/10/21 00:51:06;;;;;;;66.38;50.85;;;11.90;99.90;;;;;;5033511;28;20033;-55
2021/10/21 00:53:33;;;;;;;66.63;52.72;;;11.80;99.80;;;;;;5033904;28;20484;-55
2021/10/21 00:56:03;;;;;;;65.43;51.42;;;11.80;99.90;;;;;;5033679;28;20038;-55
2021/10/21 00:58:31;;;;;;;65.33;53.73;;;11.80;99.90;;;;;;5033472;28;20029;-55
2021/10/21 01:00:58;;;;;;;62.95;52.17;;;11.80;99.90;;;;;;5033666;28;20033;-53
2021/10/21 01:03:24;;;;;;;71.65;56.30;;;11.80;99.90;;;;;;5033405;28;20030;-57
2021/10/21 01:05:51;;;;;;;66.80;54.70;;;11.80;99.90;;;;;;5032961;28;20034;-56
2021/10/21 01:08:18;;;;;;;67.97;53.63;;;11.80;99.90;;;;;;5033345;28;20524;-56
2021/10/21 01:10:44;;;;;;;67.00;52.90;;;11.70;99.90;;;;;;5032755;28;20042;-55
2021/10/21 01:13:11;;;;;;;67.80;53.75;;;11.70;99.90;;;;;;5033271;28;20029;-56
2021/10/21 01:15:37;;;;;;;72.38;53.83;;;11.70;99.90;;;;;;5033030;28;20025;-55
2021/10/21 01:18:04;;;;;;;68.65;53.40;;;11.60;99.90;;;;;;5032884;28;20036;-56
2021/10/21 01:20:31;;;;;;;73.38;55.58;;;11.60;99.90;;;;;;5033318;28;20477;-56
2021/10/21 01:22:58;;;;;;;75.55;56.67;;;11.70;99.90;;;;;;5033155;28;20033;-55
2021/10/21 01:25:25;;;;;;;68.35;54.10;;;11.70;99.90;;;;;;5032867;28;20056;-56
2021/10/21 01:27:53;;;;;;;72.95;56.75;;;11.60;99.90;;;;;;5032795;28;20026;-56
2021/10/21 01:30:27;;;;;;;70.20;54.55;;;11.60;99.90;;;;;;5033144;28;20029;-54
2021/10/21 01:32:56;;;;;;;73.45;55.97;;;11.70;99.90;;;;;;5032956;28;20386;-57
2021/10/21 01:35:23;;;;;;;71.07;55.05;;;11.70;99.90;;;;;;5032765;28;20389;-56
2021/10/21 01:37:51;;;;;;;69.68;56.42;;;11.70;99.90;;;;;;5032568;28;20025;-55
2021/10/21 01:40:19;;;;;;;73.78;57.38;;;11.70;99.90;;;;;;5032310;28;20033;-56
2021/10/21 01:42:46;;;;;;;75.38;59.05;;;11.70;99.90;;;;;;5032499;28;20484;-58
2021/10/21 01:45:25;;;;;;;66.50;54.85;;;11.80;99.90;;;;;;5032994;28;20037;-57
2021/10/21 01:47:52;;;;;;;68.00;55.38;;;11.80;99.90;;;;;;5032431;28;20021;-56
2021/10/21 01:50:20;;;;;;;73.63;56.72;;;11.80;99.90;;;;;;5032762;28;20036;-53
2021/10/21 01:52:47;;;;;;;70.07;54.90;;;11.70;99.90;;;;;;5032247;28;20048;-54
2021/10/21 01:55:14;;;;;;;70.05;55.65;;;11.70;99.90;;;;;;5032752;28;20034;-56
2021/10/21 01:57:42;;;;;;;70.97;53.72;;;11.60;99.90;;;;;;5031417;28;20033;-56
2021/10/21 02:00:14;;;;;;;70.45;53.10;;;11.60;99.90;;;;;;5032591;28;20033;-57
2021/10/21 02:02:44;;;;;;;68.22;51.95;;;11.60;99.90;;;;;;5032673;28;20037;-55
2021/10/21 02:05:13;;;;;;;65.95;51.85;;;11.60;99.90;;;;;;5032213;28;20041;-55
2021/10/21 02:07:41;;;;;;;66.43;52.85;;;11.60;99.90;;;;;;5031142;28;20054;-52
2021/10/21 02:10:19;;;;;;;67.47;52.67;;;11.60;99.90;;;;;;5031917;28;20041;-56
2021/10/21 02:12:47;;;;;;;68.82;52.92;;;11.60;99.90;;;;;;5032672;28;20468;-54
2021/10/21 02:15:14;;;;;;;71.75;56.05;;;11.60;99.90;;;;;;5032195;28;20033;-53
2021/10/21 02:17:40;;;;;;;70.78;54.72;;;11.60;99.90;;;;;;5032356;28;20048;-57
2021/10/21 02:20:09;;;;;;;65.10;52.53;;;11.70;99.90;;;;;;5032377;28;20457;-54
2021/10/21 02:22:37;;;;;;;68.65;52.05;;;11.70;99.90;;;;;;5032459;28;20108;-53
2021/10/21 02:25:05;;;;;;;73.40;53.72;;;11.70;99.90;;;;;;5031139;28;20092;-56
2021/10/21 02:27:31;;;;;;;66.78;52.00;;;11.70;99.90;;;;;;5032174;28;20500;-56
2021/10/21 02:29:58;;;;;;;62.60;50.63;;;11.80;99.90;;;;;;5035337;28;20392;-54
2021/10/21 02:32:24;;;;;;;62.42;51.67;;;11.80;99.90;;;;;;5036264;28;20478;-56
2021/10/21 02:34:51;;;;;;;65.10;51.70;;;11.80;99.90;;;;;;5035941;28;20049;-55
2021/10/21 02:37:17;;;;;;;65.13;51.40;;;11.80;99.90;;;;;;5036087;28;20041;-53
2021/10/21 02:39:44;;;;;;;64.93;51.80;;;11.80;99.90;;;;;;5036117;28;20033;-56
2021/10/21 02:42:10;;;;;;;63.88;50.45;;;11.80;99.90;;;;;;5036625;28;20504;-55
2021/10/21 02:44:37;;;;;;;66.90;49.60;;;11.70;99.90;;;;;;5036088;28;20389;-54
2021/10/21 02:47:03;;;;;;;61.22;50.80;;;11.70;99.90;;;;;;5036371;28;20041;-54
2021/10/21 02:49:30;;;;;;;63.88;50.85;;;11.70;99.90;;;;;;5035640;28;20493;-56
2021/10/21 02:51:57;;;;;;;64.97;50.03;;;11.60;99.90;;;;;;5035511;28;20033;-56
2021/10/21 02:54:24;;;;;;;64.72;52.03;;;11.60;99.90;;;;;;5035931;28;20030;-54
2021/10/21 02:56:50;;;;;;;61.92;51.60;;;11.60;99.90;;;;;;5035735;28;20036;-54
2021/10/21 02:59:17;;;;;;;64.65;50.13;;;11.60;99.90;;;;;;5035701;28;20037;-55
2021/10/21 03:01:43;;;;;;;66.70;50.13;;;11.60;99.90;;;;;;5025845;28;20045;-56
2021/10/21 03:04:09;;;;;;;62.25;49.67;;;11.60;99.90;;;;;;5014689;28;20026;-53
2021/10/21 03:06:36;;;;;;;60.55;49.05;;;11.60;99.90;;;;;;5015767;28;20058;-51
2021/10/21 03:09:02;;;;;;;64.38;48.47;;;11.60;99.90;;;;;;5014313;28;20034;-55
2021/10/21 03:11:29;;;;;;;58.75;46.22;;;11.60;99.90;;;;;;5015782;28;20078;-56
2021/10/21 03:13:55;;;;;;;60.03;45.55;;;11.70;99.90;;;;;;5015959;28;20050;-52
2021/10/21 03:16:22;;;;;;;54.55;43.90;;;11.70;99.90;;;;;;5015668;28;20382;-55
2021/10/21 03:18:48;;;;;;;55.72;43.53;;;11.70;99.90;;;;;;5015623;28;20025;-54
2021/10/21 03:21:14;;;;;;;63.30;44.15;;;11.70;99.90;;;;;;5015693;28;20528;-53
2021/10/21 03:23:41;;;;;;;54.42;44.75;;;11.70;99.90;;;;;;5015452;28;20386;-52
2021/10/21 03:26:07;;;;;;;58.90;43.05;;;11.70;99.90;;;;;;5015859;28;20038;-55
2021/10/21 03:28:34;;;;;;;57.00;45.25;;;11.70;99.90;;;;;;5015053;28;20038;-55
2021/10/21 03:31:00;;;;;;;56.38;44.47;;;11.70;99.90;;;;;;5015397;28;20029;-56
2021/10/21 03:33:27;;;;;;;60.28;47.05;;;11.60;99.90;;;;;;5015142;28;20061;-54
2021/10/21 03:35:53;;;;;;;56.20;43.78;;;11.60;99.90;;;;;;5015498;28;20029;-54
2021/10/21 03:38:20;;;;;;;58.13;44.60;;;11.50;99.90;;;;;;5015172;28;20363;-56
2021/10/21 03:40:46;;;;;;;58.55;46.53;;;11.50;99.90;;;;;;5014525;28;20406;-56
2021/10/21 03:43:13;;;;;;;60.50;44.33;;;11.50;99.90;;;;;;5013935;28;20038;-54
2021/10/21 03:45:39;;;;;;;56.75;45.38;;;11.50;99.90;;;;;;5014271;28;20355;-52
2021/10/21 03:48:06;;;;;;;59.58;45.95;;;11.40;99.90;;;;;;5015731;28;20046;-55
2021/10/21 03:50:32;;;;;;;59.15;45.40;;;11.40;99.90;;;;;;5015506;28;20053;-55
2021/10/21 03:52:59;;;;;;;56.40;45.17;;;11.50;99.90;;;;;;5014924;28;20038;-53
2021/10/21 03:55:26;;;;;;;53.83;43.35;;;11.50;99.90;;;;;;5014714;28;20026;-54
2021/10/21 03:57:52;;;;;;;54.55;43.03;;;11.50;99.90;;;;;;5014792;28;20037;-55
2021/10/21 04:00:18;;;;;;;53.38;40.55;;;11.50;99.90;;;;;;5014647;28;20037;-56
2021/10/21 04:02:45;;;;;;;52.13;39.35;;;11.50;99.90;;;;;;5015017;28;20037;-55
2021/10/21 04:05:11;;;;;;;47.72;38.75;;;11.50;99.90;;;;;;5014909;28;20026;-56
2021/10/21 04:07:38;;;;;;;51.70;39.58;;;11.60;99.90;;;;;;5013612;28;20054;-57
2021/10/21 04:10:05;;;;;;;55.65;41.05;;;11.60;99.90;;;;;;5013960;28;20470;-52
2021/10/21 04:12:31;;;;;;;49.50;39.47;;;11.60;99.90;;;;;;5014550;28;20045;-56
2021/10/21 04:14:58;;;;;;;52.50;39.65;;;11.60;99.90;;;;;;5014820;28;20030;-55
2021/10/21 04:17:25;;;;;;;56.47;43.25;;;11.60;99.90;;;;;;5013438;28;20034;-54
2021/10/21 04:19:51;;;;;;;50.38;40.72;;;11.60;99.90;;;;;;5014740;28;20033;-57
2021/10/21 04:22:18;;;;;;;50.95;40.60;;;11.70;99.90;;;;;;5013287;28;20041;-56
2021/10/21 04:24:44;;;;;;;57.33;45.47;;;11.60;99.90;;;;;;5014909;28;20053;-57
2021/10/21 04:27:11;;;;;;;58.22;45.60;;;11.60;99.90;;;;;;5014660;28;20045;-53
2021/10/21 04:29:37;;;;;;;57.92;46.58;;;11.60;99.90;;;;;;5014459;28;20049;-53
2021/10/21 04:32:04;;;;;;;59.58;47.47;;;11.70;99.90;;;;;;5014227;28;20042;-53
2021/10/21 04:34:31;;;;;;;58.33;47.22;;;11.70;99.90;;;;;;5014345;28;20018;-55
2021/10/21 04:36:59;;;;;;;54.42;45.33;;;11.60;99.90;;;;;;5014074;28;20034;-56
2021/10/21 04:39:25;;;;;;;60.42;47.47;;;11.70;99.90;;;;;;5013865;28;20370;-54
2021/10/21 04:41:52;;;;;;;55.53;44.92;;;11.70;99.90;;;;;;5014289;28;20038;-55
2021/10/21 04:44:18;;;;;;;63.17;47.45;;;11.70;99.90;;;;;;5014307;28;20033;-55
2021/10/21 04:46:45;;;;;;;63.40;47.17;;;11.70;99.90;;;;;;5013065;28;20029;-57
2021/10/21 04:49:11;;;;;;;57.63;47.95;;;11.70;99.90;;;;;;5014033;28;20037;-53
2021/10/21 04:51:38;;;;;;;55.40;45.30;;;11.70;99.90;;;;;;5013235;28;20034;-54
2021/10/21 04:54:04;;;;;;;64.85;47.72;;;11.70;99.90;;;;;;5014265;28;20049;-55
2021/10/21 04:56:31;;;;;;;60.55;46.38;;;11.70;99.90;;;;;;5013932;28;20040;-53
2021/10/21 04:58:57;;;;;;;60.38;47.03;;;11.70;99.90;;;;;;5014226;28;20045;-54
2021/10/21 05:01:24;;;;;;;56.17;44.30;;;11.70;99.90;;;;;;5013606;28;20026;-56
2021/10/21 05:03:50;;;;;;;60.00;44.72;;;11.70;99.90;;;;;;5013403;28;20037;-56
2021/10/21 05:06:17;;;;;;;64.03;44.63;;;11.70;99.90;;;;;;5013589;28;20427;-56
2021/10/21 05:08:43;;;;;;;58.70;45.83;;;11.60;99.90;;;;;;5013208;28;20037;-56
2021/10/21 05:11:10;;;;;;;56.10;45.03;;;11.60;99.90;;;;;;5013567;28;20037;-55
2021/10/21 05:13:36;;;;;;;56.97;46.53;;;11.60;99.90;;;;;;5013332;28;20370;-55
2021/10/21 05:16:03;;;;;;;57.10;44.70;;;11.60;99.90;;;;;;5018197;28;20052;-57
2021/10/21 05:18:29;;;;;;;59.60;45.25;;;11.60;99.90;;;;;;5030310;28;20026;-53
2021/10/21 05:20:56;;;;;;;58.33;46.42;;;11.60;99.90;;;;;;5029874;28;20494;-57
2021/10/21 05:23:23;;;;;;;56.13;44.58;;;11.60;99.90;;;;;;5014367;28;20030;-56
2021/10/21 05:25:50;;;;;;;56.60;45.15;;;11.60;99.90;;;;;;5021763;28;20033;-56
2021/10/21 05:28:16;;;;;;;57.65;45.25;;;11.60;99.90;;;;;;5027290;28;20036;-56
2021/10/21 05:30:43;;;;;;;60.05;47.60;;;11.60;99.90;;;;;;5026132;28;20497;-56
2021/10/21 05:33:09;;;;;;;65.65;49.03;;;11.50;99.90;;;;;;5028620;28;20045;-52
2021/10/21 05:35:36;;;;;;;56.67;44.53;;;11.50;99.90;;;;;;5019130;28;20478;-55
2021/10/21 05:38:02;;;;;;;62.03;47.45;;;11.50;99.90;;;;;;5026594;28;20028;-52
2021/10/21 05:40:29;;;;;;;60.85;48.05;;;11.60;99.90;;;;;;5020563;28;20030;-55
2021/10/21 05:42:55;;;;;;;58.58;45.15;;;11.60;99.90;;;;;;5028186;28;20141;-55
2021/10/21 05:45:22;;;;;;;60.13;45.20;;;11.60;99.90;;;;;;5025844;28;20037;-56
2021/10/21 05:47:48;;;;;;;63.40;48.45;;;11.60;99.90;;;;;;5019180;28;20037;-55
2021/10/21 05:50:15;;;;;;;63.90;45.85;;;11.60;99.90;;;;;;5029045;28;20498;-56
2021/10/21 05:52:41;;;;;;;55.92;46.72;;;11.60;99.90;;;;;;5027590;28;20029;-54
2021/10/21 05:55:08;;;;;;;64.95;47.95;;;11.70;99.90;;;;;;5008416;28;20512;-56
2021/10/21 05:57:35;;;;;;;64.05;50.88;;;11.70;99.90;;;;;;5022759;28;20030;-56
2021/10/21 06:00:01;;;;;;;65.20;49.00;;;11.70;99.90;;;;;;5031666;28;20034;-55
2021/10/21 06:02:38;;;;;;;63.70;50.15;;;11.70;99.90;;;;;;5025990;28;20101;-54
2021/10/21 06:05:06;;;;;;;64.95;47.55;;;11.70;99.90;;;;;;5022563;28;20046;-56
2021/10/21 06:07:32;;;;;;;64.65;48.35;;;11.70;99.90;;;;;;5027461;28;20048;-56
2021/10/21 06:09:59;;;;;;;66.78;49.35;;;11.70;99.90;;;;;;5024549;28;20076;-56
2021/10/21 06:12:26;;;;;;;64.47;47.88;;;11.70;99.90;;;;;;5026989;28;20385;-57
2021/10/21 06:14:52;;;;;;;59.25;46.53;;;11.70;99.90;;;;;;5022808;28;20045;-56
2021/10/21 06:17:23;;;;;;;64.35;50.08;;;11.70;99.90;;;;;;5026867;28;20045;-55
2021/10/21 06:19:49;;;;;;;64.10;50.30;;;11.70;99.90;;;;;;5022793;28;20029;-54
2021/10/21 06:22:18;;;;;;;60.42;50.15;;;11.70;99.90;;;;;;5028964;28;20034;-52
2021/10/21 06:24:46;;;;;;;61.58;49.60;;;11.70;99.90;;;;;;5024608;28;20058;-55
2021/10/21 06:27:13;;;;;;;63.80;50.35;;;11.70;99.90;;;;;;5027597;28;20038;-56
2021/10/21 06:29:40;;;;;;;63.58;50.35;;;11.70;99.90;;;;;;5024144;28;20034;-56
2021/10/21 06:32:08;;;;;;;64.82;49.92;;;11.70;99.90;;;;;;5019646;28;20032;-54
2021/10/21 06:34:35;;;;;;;66.88;49.47;;;11.70;99.90;;;;;;5026738;28;20037;-53
2021/10/21 06:37:02;;;;;;;65.53;48.47;;;11.70;99.90;;;;;;5021780;28;20032;-53
2021/10/21 06:39:28;;;;;;;59.42;48.92;;;11.70;99.90;;;;;;5026164;28;20041;-56
2021/10/21 06:41:54;;;;;;;64.05;49.38;;;11.70;99.90;;;;;;5022179;28;20033;-50
2021/10/21 06:44:21;;;;;;;62.80;51.63;;;11.70;99.90;;;;;;5028615;28;20038;-56
2021/10/21 06:46:47;;;;;;;64.93;51.30;;;11.70;99.90;;;;;;5021354;28;20029;-56
2021/10/21 06:49:14;;;;;;;61.40;49.20;;;11.70;99.90;;;;;;5029729;28;20062;-55
2021/10/21 06:51:40;;;;;;;69.05;50.90;;;11.70;99.90;;;;;;5024928;28;20416;-54
2021/10/21 06:54:06;;;;;;;68.00;50.40;;;11.80;99.90;;;;;;5030429;28;20074;-56
2021/10/21 06:56:33;;;;;;;63.88;48.83;;;11.80;99.90;;;;;;5019254;28;20034;-54
2021/10/21 06:59:00;;;;;;;60.10;49.00;;;11.80;99.90;;;;;;5016608;28;20030;-52
2021/10/21 07:01:26;;;;;;;64.10;48.60;;;11.80;99.90;;;;;;5014743;28;20046;-55
2021/10/21 07:03:52;;;;;;;65.35;49.95;;;11.80;99.90;;;;;;5012146;28;20489;-55
2021/10/21 07:06:19;;;;;;;66.32;50.40;;;11.80;99.90;;;;;;5011795;28;20034;-55
2021/10/21 07:08:45;;;;;;;67.90;52.45;;;11.80;99.90;;;;;;5014111;28;20386;-56
2021/10/21 07:11:12;;;;;;;70.70;51.28;;;11.90;99.90;;;;;;5011594;28;20030;-55
2021/10/21 07:13:38;;;;;;;65.22;50.17;;;11.90;99.90;;;;;;5011550;28;20057;-54
2021/10/21 07:16:05;;;;;;;66.88;50.85;;;11.90;99.90;;;;;;5014870;28;20030;-56
2021/10/21 07:18:32;;;;;;;65.55;50.25;;;11.90;99.90;;;;;;5015468;28;20537;-55
2021/10/21 07:20:59;;;;;;;72.63;53.58;;;11.90;99.90;;;;;;5014813;28;20487;-55
2021/10/21 07:23:25;;;;;;;74.28;56.28;;;11.90;99.90;;;;;;5015434;28;20386;-54
2021/10/21 07:25:52;;;;;;;81.03;57.72;;;12.00;99.90;;;;;;5015290;28;20040;-55
2021/10/21 07:28:21;;;;;;;72.85;55.15;;;12.00;99.90;;;;;;5015065;28;20046;-57
2021/10/21 07:30:57;;;;;;;71.68;54.75;;;12.00;99.90;;;;;;5014392;28;20049;-57
2021/10/21 07:33:24;;;;;;;67.18;52.15;;;12.00;99.90;;;;;;5015034;28;20034;-54
2021/10/21 07:35:50;;;;;;;65.50;51.83;;;12.00;99.90;;;;;;5015017;28;20038;-55
2021/10/21 07:38:17;;;;;;;69.20;53.50;;;12.10;99.90;;;;;;5014873;28;20045;-55
2021/10/21 07:40:43;;;;;;;67.88;53.60;;;12.00;99.90;;;;;;5014439;28;20033;-55
2021/10/21 07:43:13;;;;;;;71.78;54.92;;;12.00;99.90;;;;;;5014605;28;20022;-56
2021/10/21 07:45:40;;;;;;;68.78;52.58;;;12.00;99.90;;;;;;5014932;28;20041;-57
2021/10/21 07:48:07;;;;;;;72.00;53.38;;;12.00;99.90;;;;;;5014561;28;20030;-59
2021/10/21 07:50:35;;;;;;;69.35;55.20;;;12.10;99.90;;;;;;5014558;28;20049;-55
2021/10/21 07:53:03;;;;;;;75.43;54.05;;;12.20;99.90;;;;;;5014591;28;20057;-63
2021/10/21 07:55:32;;;;;;;67.78;53.38;;;12.30;99.90;;;;;;5014602;28;20044;-59
2021/10/21 07:57:59;;;;;;;64.85;50.58;;;12.40;99.90;;;;;;5014612;28;20049;-55
2021/10/21 08:00:26;;;;;;;65.38;49.55;;;12.50;99.90;;;;;;5015105;28;20034;-57
2021/10/21 08:02:52;;;;;;;72.28;55.03;;;12.60;99.90;;;;;;5014442;28;20034;-59
2021/10/21 08:05:19;;;;;;;60.90;49.20;;;12.70;99.80;;;;;;5014510;28;20041;-60
2021/10/21 08:07:49;;;;;;;65.22;50.75;;;12.80;99.30;;;;;;5021719;28;20057;-60
2021/10/21 08:10:17;;;;;;;65.28;52.13;;;12.90;99.00;;;;;;5032201;28;20991;-60
2021/10/21 08:12:48;;;;;;;66.22;53.22;;;13.00;98.60;;;;;;5014373;28;20026;-59
2021/10/21 08:15:16;;;;;;;71.05;52.13;;;13.00;98.00;;;;;;5014195;28;20029;-58
2021/10/21 08:17:43;;;;;;;67.88;53.55;;;13.10;97.80;;;;;;5014203;28;20030;-61
2021/10/21 08:20:13;;;;;;;62.88;51.55;;;13.10;97.40;;;;;;5014024;28;20489;-55
2021/10/21 08:22:45;;;;;;;60.63;50.17;;;13.10;96.70;;;;;;5022130;28;20045;-52
2021/10/21 08:25:12;;;;;;;61.65;49.63;;;13.10;96.60;;;;;;5024494;28;20033;-54
2021/10/21 08:27:39;;;;;;;72.15;52.70;;;13.20;96.70;;;;;;5023255;28;20022;-54
2021/10/21 08:30:07;;;;;;;65.32;52.58;;;13.20;96.80;;;;;;5022373;28;20050;-49
2021/10/21 08:32:37;;;;;;;70.93;54.28;;;13.30;96.80;;;;;;5023748;28;20377;-49
2021/10/21 08:35:06;;;;;;;64.75;51.65;;;13.30;96.70;;;;;;5022533;28;20377;-54
2021/10/21 08:37:33;;;;;;;65.72;53.08;;;13.30;96.40;;;;;;5022001;28;20410;-49
2021/10/21 08:40:01;;;;;;;70.28;54.05;;;13.30;96.40;;;;;;5013801;28;20037;-50
2021/10/21 08:42:28;;;;;;;70.20;54.47;;;13.40;97.10;;;;;;5013923;28;20030;-49
2021/10/21 08:44:56;;;;;;;75.35;55.00;;;13.40;97.30;;;;;;5013577;28;20390;-48
2021/10/21 08:47:25;;;;;;;74.43;57.47;;;13.50;97.50;;;;;;5013759;28;20037;-50
2021/10/21 08:49:55;;;;;;;71.00;56.88;;;13.50;98.10;;;;;;5011966;28;20046;-50
2021/10/21 08:52:22;;;;;;;76.18;57.42;;;13.50;97.80;;;;;;5013863;28;20259;-51
2021/10/21 08:54:49;;;;;;;68.80;55.97;;;13.50;97.50;;;;;;5013717;28;20446;-50
2021/10/21 08:57:15;;;;;;;72.68;57.95;;;13.60;97.20;;;;;;5013489;28;20041;-52
2021/10/21 08:59:44;;;;;;;68.93;55.38;;;13.70;97.10;;;;;;5011931;28;20048;-49
2021/10/21 09:02:17;;;;;;;72.90;58.58;;;13.80;96.80;;;;;;5011259;28;20053;-52
2021/10/21 09:10:14;;;;;;;72.10;57.55;;;13.90;95.10;;;;;;5030272;28;20041;-54
2021/10/21 09:12:48;;;;;;;78.57;60.38;;;14.00;95.00;;;;;;5029512;28;20040;-53
2021/10/21 09:15:17;;;;;;;75.28;60.05;;;14.10;94.90;;;;;;5012783;28;20463;-53
2021/10/21 09:17:45;;;;;;;73.70;59.13;;;14.10;94.60;;;;;;5027976;28;20038;-54
2021/10/21 09:20:39;;;;;;;76.10;58.72;;;14.10;94.30;;;;;;5012513;28;20034;-52
2021/10/21 09:23:15;;;;;;;74.60;60.08;;;14.10;94.40;;;;;;5027392;28;20034;-53
2021/10/21 09:25:44;;;;;;;79.80;61.50;;;14.10;94.00;;;;;;5012162;28;20033;-54
2021/10/21 09:28:24;;;;;;;69.15;54.88;;;14.20;94.10;;;;;;5012648;28;20489;-52
2021/10/21 09:30:52;;;;;;;;;;;14.20;95.20;;;;;;5013202;28;20041;-50
2021/10/21 09:33:18;;;;;;;69.03;52.72;;;14.20;95.70;;;;;;5012267;28;19913;-51
2021/10/21 09:35:54;;;;;;;64.75;53.97;;;14.00;96.70;;;;;;5012512;28;20041;-50
2021/10/21 09:38:26;;;;;;;64.45;52.05;;;14.10;96.70;;;;;;5010855;28;20397;-51
2021/10/21 09:40:54;;;;;;;64.03;50.88;;;14.10;96.30;;;;;;5011891;28;20502;-51
2021/10/21 09:43:32;;;;;;;70.10;53.90;;;14.10;96.00;;;;;;5011011;28;20059;-53
2021/10/21 09:45:59;;;;;;;65.18;51.03;;;14.20;95.80;;;;;;5012385;28;20029;-52
2021/10/21 09:48:25;;;;;;;65.15;52.10;;;14.20;95.60;;;;;;5012031;28;20045;-54
2021/10/21 09:50:52;;;;;;;65.82;53.28;;;14.30;95.90;;;;;;5012410;28;20038;-53
2021/10/21 09:53:29;;;;;;;67.00;54.60;;;14.30;95.50;;;;;;5012333;28;20033;-53
2021/10/21 09:56:08;;;;;;;64.65;55.33;;;14.30;95.40;;;;;;5012193;28;20382;-50
2021/10/21 09:58:37;;;;;;;67.20;53.08;;;14.30;95.20;;;;;;5012397;28;20462;-52
2021/10/21 10:01:15;;;;;;;67.43;55.97;;;14.30;94.90;;;;;;5012520;28;20382;-49
2021/10/21 10:03:45;;;;;;;74.45;57.97;;;14.40;95.20;;;;;;5011229;28;20026;-53
2021/10/21 10:06:14;;;;;;;70.43;55.72;;;14.40;94.70;;;;;;5012204;28;20044;-52
2021/10/21 10:08:41;;;;;;;69.00;56.72;;;14.40;94.40;;;;;;5027979;28;20458;-51
2021/10/21 10:11:11;;;;;;;76.93;62.55;;;14.50;94.00;;;;;;5011321;28;20049;-52
2021/10/21 10:13:56;;;;;;;73.78;60.25;;;14.50;93.40;;;;;;5011223;28;20358;-48
2021/10/21 10:16:24;;;;;;;76.57;61.88;;;14.50;93.40;;;;;;5012168;28;20045;-54
2021/10/21 10:18:50;;;;;;;73.57;59.28;;;14.50;93.30;;;;;;5011925;28;20038;-51
2021/10/21 10:21:24;;;;;;;74.40;60.95;;;14.60;93.60;;;;;;5011741;28;20029;-54
2021/10/21 10:23:54;;;;;;;75.90;62.38;;;14.60;93.20;;;;;;5011105;28;20033;-54
2021/10/21 10:26:42;;;;;;;78.57;62.22;;;14.60;93.00;;;;;;5011643;28;20045;-53
2021/10/21 10:29:12;;;;;;;76.15;62.33;;;14.70;93.30;;;;;;5012445;28;20042;-50
2021/10/21 10:31:47;;;;;;;70.07;59.22;;;14.80;93.30;;;;;;5011521;28;20034;-51
2021/10/21 10:34:32;;;;;;;75.18;58.97;;;14.90;93.40;;;;;;5010399;28;20495;-50
2021/10/21 10:37:16;;;;;;;69.90;58.63;;;15.00;93.10;;;;;;5011792;28;20034;-52
2021/10/21 10:39:51;;;;;;;69.85;56.72;;;15.00;92.90;;;;;;5011301;28;20049;-51
2021/10/21 10:42:38;;;;;;;72.13;58.78;;;15.20;92.90;;;;;;5011467;28;20029;-53
2021/10/21 10:45:09;;;;;;;85.72;62.90;;;15.30;92.60;;;;;;5012014;28;20386;-52
2021/10/21 10:47:49;;;;;;;84.95;65.40;;;15.30;91.90;;;;;;5013979;28;20029;-54
2021/10/21 10:50:21;;;;;;;79.32;66.82;;;15.20;91.70;;;;;;5013854;28;20042;-62
2021/10/21 10:52:53;;;;;;;76.68;63.55;;;15.30;91.80;;;;;;5017057;28;20040;-59
2021/10/21 10:55:26;;;;;;;81.38;62.90;;;15.30;91.70;;;;;;5029525;28;20025;-58
2021/10/21 10:57:55;;;;;;;75.78;61.80;;;15.40;91.90;;;;;;5024087;28;20486;-54
2021/10/21 11:00:44;;;;;;;71.47;58.90;;;15.40;91.90;;;;;;5023787;28;20026;-53
2021/10/21 11:03:11;;;;;;;73.38;62.25;;;15.40;91.90;;;;;;5026902;28;20524;-59
2021/10/21 11:05:46;;;;;;;80.82;64.25;;;15.40;91.30;;;;;;5035383;28;20461;-56
2021/10/21 11:08:15;;;;;;;82.22;65.72;;;15.30;91.70;;;;;;5024857;28;20052;-58
2021/10/21 11:10:46;;;;;;;79.45;62.67;;;15.40;91.60;;;;;;5024464;28;20034;-58
2021/10/21 11:13:32;;;;;;;77.43;61.67;;;15.40;91.70;;;;;;5029843;28;20029;-56
2021/10/21 11:15:58;;;;;;;79.82;64.72;;;15.40;91.60;;;;;;5023252;28;20521;-59
2021/10/21 11:18:31;;;;;;;79.05;63.05;;;15.40;91.70;;;;;;5014817;28;20040;-58
2021/10/21 11:20:58;;;;;;;79.35;61.55;;;15.50;91.70;;;;;;5021448;28;20030;-54
2021/10/21 11:23:30;;;;;;;73.40;61.53;;;15.50;91.60;;;;;;5021803;28;20045;-56
2021/10/21 11:26:02;;;;;;;73.10;62.40;;;15.60;91.70;;;;;;5022665;28;20044;-56
2021/10/21 11:28:31;;;;;;;73.53;60.78;;;15.60;91.80;;;;;;5031400;28;20033;-53
2021/10/21 11:30:58;;;;;;;79.28;62.15;;;15.60;91.30;;;;;;5024031;28;20036;-58
2021/10/21 11:33:28;;;;;;;72.78;61.03;;;15.70;91.40;;;;;;5028789;28;20474;-59
2021/10/21 11:36:01;;;;;;;74.93;60.47;;;15.70;91.40;;;;;;5034534;28;20029;-55
2021/10/21 11:38:32;;;;;;;65.50;56.67;;;15.80;91.10;;;;;;5024730;28;20037;-56
2021/10/21 11:41:00;;;;;;;;;;;15.80;91.00;;;;;;5032839;28;20386;-60
2021/10/21 11:43:38;;;;;;;73.10;59.13;;;15.80;90.60;;;;;;5024471;28;19909;-55
2021/10/21 11:46:07;;;;;;;71.25;58.95;;;15.90;90.50;;;;;;5022063;28;20038;-56
2021/10/21 11:48:36;;;;;;;74.85;61.55;;;16.00;90.60;;;;;;5023246;28;20453;-58
2021/10/21 11:51:09;;;;;;;78.70;60.73;;;16.00;89.90;;;;;;5024542;28;20401;-55
2021/10/21 11:53:37;;;;;;;70.10;60.25;;;16.00;88.80;;;;;;5033462;28;20272;-56
2021/10/21 11:56:04;;;;;;;71.18;59.35;;;16.00;88.60;;;;;;5034095;28;20033;-58
2021/10/21 11:58:41;;;;;;;67.63;55.85;;;16.00;88.30;;;;;;5032656;28;20405;-55
2021/10/21 12:01:09;;;;;;;60.97;52.58;;;16.00;89.00;;;;;;5030938;28;20042;-54
2021/10/21 12:03:39;;;;;;;63.63;54.35;;;15.90;89.60;;;;;;5024653;28;20419;-55
2021/10/21 12:06:09;;;;;;;62.03;55.23;;;15.90;89.50;;;;;;5021479;28;20497;-52
2021/10/21 12:08:36;;;;;;;65.05;54.97;;;15.90;90.20;;;;;;5021349;28;20352;-52
2021/10/21 12:11:06;;;;;;;70.65;57.40;;;16.00;90.20;;;;;;5018623;28;20052;-51
2021/10/21 12:13:34;;;;;;;;;;;16.10;90.00;;;;;;5022773;28;20026;-52
2021/10/21 12:16:09;;;;;;;75.70;63.25;;;16.10;90.10;;;;;;5019387;28;19913;-54
2021/10/21 12:18:36;;;;;;;74.07;60.13;;;16.10;90.20;;;;;;5023937;28;20022;-54
2021/10/21 12:21:07;;;;;;;81.20;58.80;;;16.10;90.10;;;;;;5016468;28;20037;-54
2021/10/21 12:23:51;;;;;;;64.10;56.70;;;16.20;90.00;;;;;;5017564;28;20066;-54
2021/10/21 12:26:33;;;;;;;71.38;55.92;;;16.20;89.50;;;;;;5013833;28;20048;-54
2021/10/21 12:29:08;;;;;;;69.63;56.88;;;16.20;89.30;;;;;;5022191;28;20162;-52
2021/10/21 12:31:37;;;;;;;67.50;55.58;;;16.20;89.20;;;;;;5019145;28;20116;-51
2021/10/21 12:34:06;;;;;;;65.25;53.47;;;16.30;89.00;;;;;;5026558;28;20026;-53
2021/10/21 12:36:34;;;;;;;67.97;55.55;;;16.30;88.90;;;;;;5018479;28;20485;-52
2021/10/21 12:39:10;;;;;;;64.78;54.97;;;16.30;88.80;;;;;;5021518;28;20061;-53
2021/10/21 12:41:58;;;;;;;64.22;53.47;;;16.30;88.60;;;;;;5020020;28;20033;-51